Time;durP1;ratioP1;P1;durP2;ratioP2;P2;SDS_P1;SDS_P2;PMS_P1;PMS_P2;Temp;Humidity;BMP_temperature;BMP_pressure;BME280_temperature;BME280_humidity;BME280_pressure;Samples;Min_cycle;Max_cycle;Signal;HPM_P1;HPM_P2
2021/12/13 00:00:15;;;;;;;69.63;29.60;;;10.30;99.90;;;;;;5094572;28;20550;-79
2021/12/13 00:03:00;;;;;;;69.50;30.33;;;10.40;99.90;;;;;;5057369;28;20082;-76
2021/12/13 00:05:38;;;;;;;74.03;31.25;;;10.40;99.90;;;;;;5060897;28;20090;-83
2021/12/13 00:08:09;;;;;;;85.82;31.40;;;10.40;99.90;;;;;;5112063;28;20522;-81
2021/12/13 00:10:39;;;;;;;91.38;33.92;;;10.40;99.90;;;;;;5092225;28;20040;-81
2021/12/13 00:13:14;;;;;;;76.95;31.67;;;10.40;99.90;;;;;;5069269;28;20092;-81
2021/12/13 00:16:04;;;;;;;83.28;31.77;;;10.40;99.90;;;;;;5076387;28;20396;-79
2021/12/13 00:18:40;;;;;;;68.88;29.45;;;10.40;99.90;;;;;;5070878;28;20103;-81
2021/12/13 00:21:19;;;;;;;65.90;31.35;;;10.40;99.90;;;;;;5076749;28;20039;-79
2021/12/13 00:23:57;;;;;;;72.65;30.35;;;10.40;99.90;;;;;;5093432;28;20099;-81
2021/12/13 00:26:33;;;;;;;56.70;27.88;;;10.40;99.90;;;;;;5076277;28;20051;-79
2021/12/13 00:29:10;;;;;;;68.38;31.17;;;10.40;99.90;;;;;;5073206;28;20083;-78
2021/12/13 00:32:10;;;;;;;66.10;30.30;;;10.40;99.90;;;;;;5077946;28;20040;-78
2021/12/13 00:34:43;;;;;;;73.47;29.42;;;10.40;99.90;;;;;;5093994;28;20429;-76
2021/12/13 00:37:31;;;;;;;54.22;27.33;;;10.40;99.90;;;;;;5076241;28;20040;-78
2021/12/13 00:40:22;;;;;;;42.05;25.15;;;10.40;99.90;;;;;;5055876;28;20056;-78
2021/12/13 00:43:08;;;;;;;49.33;24.45;;;10.40;99.90;;;;;;5093381;28;20403;-76
2021/12/13 00:45:39;;;;;;;49.67;25.92;;;10.40;99.90;;;;;;5076661;28;20046;-78
2021/12/13 00:48:07;;;;;;;55.72;28.10;;;10.40;99.90;;;;;;5093430;28;20043;-79
2021/12/13 00:50:43;;;;;;;57.10;27.92;;;10.50;99.90;;;;;;5075786;28;20043;-80
2021/12/13 00:53:10;;;;;;;50.85;27.65;;;10.40;99.90;;;;;;5093592;28;20051;-76
2021/12/13 00:55:36;;;;;;;42.42;26.08;;;10.40;99.90;;;;;;5093980;28;20035;-80
2021/12/13 00:58:10;;;;;;;57.35;28.73;;;10.40;99.90;;;;;;5092552;28;20043;-81
2021/12/13 01:00:38;;;;;;;52.75;28.58;;;10.40;99.90;;;;;;5090970;28;20127;-81
2021/12/13 01:03:20;;;;;;;57.17;29.75;;;10.40;99.90;;;;;;5056614;28;20058;-78
2021/12/13 01:06:11;;;;;;;51.57;27.90;;;10.50;99.90;;;;;;5092716;28;20048;-82
2021/12/13 01:08:42;;;;;;;50.10;28.88;;;10.50;99.90;;;;;;5075493;28;20484;-81
2021/12/13 01:11:33;;;;;;;46.90;27.63;;;10.40;99.90;;;;;;5076213;28;20047;-81
2021/12/13 01:14:28;;;;;;;59.05;30.35;;;10.50;99.90;;;;;;5062809;28;20056;-81
2021/12/13 01:17:09;;;;;;;59.70;28.85;;;10.40;99.90;;;;;;5093000;28;20074;-81
2021/12/13 01:19:59;;;;;;;42.15;25.10;;;10.40;99.90;;;;;;5092757;28;20492;-82
2021/12/13 01:25:21;;;;;;;44.20;25.80;;;10.40;99.90;;;;;;5085986;28;20380;-82
2021/12/13 01:28:04;;;;;;;44.13;25.77;;;10.40;99.90;;;;;;5093093;28;20440;-83
2021/12/13 01:30:37;;;;;;;45.40;26.08;;;10.40;99.90;;;;;;5076007;28;20112;-83
2021/12/13 01:33:08;;;;;;;45.03;25.35;;;10.40;99.90;;;;;;5075470;28;20071;-84
2021/12/13 01:35:39;;;;;;;47.15;25.17;;;10.40;99.90;;;;;;5092172;28;20098;-81
2021/12/13 01:38:17;;;;;;;48.03;24.00;;;10.40;99.90;;;;;;5077000;28;20039;-81
2021/12/13 01:40:48;;;;;;;45.33;24.75;;;10.40;99.90;;;;;;5092290;28;20050;-80
2021/12/13 01:43:44;;;;;;;36.85;23.17;;;10.40;99.90;;;;;;5092814;28;20396;-80
2021/12/13 01:46:10;;;;;;;49.65;25.63;;;10.40;99.90;;;;;;5070940;28;20089;-80
2021/12/13 01:48:46;;;;;;;51.20;25.35;;;10.40;99.90;;;;;;5092903;28;20083;-80
2021/12/13 01:51:15;;;;;;;56.20;25.27;;;10.40;99.90;;;;;;5110220;28;20126;-79
2021/12/13 01:53:55;;;;;;;40.08;23.30;;;10.40;99.90;;;;;;5110001;28;20032;-79
2021/12/13 01:56:54;;;;;;;51.10;25.48;;;10.40;99.90;;;;;;5092501;28;20404;-79
2021/12/13 02:02:20;;;;;;;38.53;22.97;;;10.40;99.90;;;;;;5092041;28;20052;-83
2021/12/13 02:04:59;;;;;;;45.55;25.83;;;10.40;99.90;;;;;;5075730;28;20051;-83
2021/12/13 02:07:29;;;;;;;40.95;22.85;;;10.40;99.90;;;;;;5091085;28;20137;-82
2021/12/13 02:09:56;;;;;;;45.70;25.30;;;10.40;99.90;;;;;;5090373;28;20039;-81
2021/12/13 02:12:28;;;;;;;54.17;27.48;;;10.30;99.90;;;;;;5078611;28;20047;-82
2021/12/13 02:17:46;;;;;;;53.10;26.83;;;10.40;99.90;;;;;;5096207;28;20047;-82
2021/12/13 02:20:33;;;;;;;48.03;26.40;;;10.30;99.90;;;;;;5079250;28;20587;-82
2021/12/13 02:22:58;;;;;;;52.70;26.33;;;10.30;99.90;;;;;;5095849;28;20500;-79
2021/12/13 02:25:32;;;;;;;48.00;25.73;;;10.30;99.90;;;;;;5078923;28;20096;-81
2021/12/13 02:28:23;;;;;;;39.00;23.63;;;10.30;99.90;;;;;;5095154;28;20050;-82
2021/12/13 02:31:20;;;;;;;39.53;25.48;;;10.30;99.90;;;;;;5095767;28;20058;-79
2021/12/13 02:33:55;;;;;;;36.30;22.70;;;10.30;99.90;;;;;;5114869;28;20050;-74
2021/12/13 02:36:37;;;;;;;38.00;24.30;;;10.20;99.90;;;;;;5077365;28;20402;-82
2021/12/13 02:39:11;;;;;;;38.13;22.50;;;10.20;99.90;;;;;;5091342;28;20074;-84
2021/12/13 02:41:38;;;;;;;34.45;22.35;;;10.20;99.90;;;;;;5096236;28;20035;-82
2021/12/13 02:44:12;;;;;;;37.28;22.88;;;10.10;99.90;;;;;;5095464;28;20063;-79
2021/12/13 02:46:39;;;;;;;39.15;22.83;;;10.10;99.90;;;;;;5095495;28;20059;-82
2021/12/13 02:49:09;;;;;;;37.90;22.65;;;10.20;99.90;;;;;;5078949;28;20384;-83
2021/12/13 02:51:43;;;;;;;36.40;22.48;;;10.20;99.90;;;;;;5079142;28;20036;-82
2021/12/13 02:54:16;;;;;;;33.75;20.90;;;10.10;99.90;;;;;;5095745;28;20068;-80
2021/12/13 02:56:52;;;;;;;29.98;20.10;;;10.10;99.90;;;;;;5077779;28;20073;-82
2021/12/13 02:59:20;;;;;;;39.33;20.48;;;10.10;99.90;;;;;;5078865;28;20075;-82
2021/12/13 03:01:54;;;;;;;30.73;18.83;;;10.10;99.90;;;;;;5078293;28;20445;-82
2021/12/13 03:04:23;;;;;;;29.88;18.25;;;10.10;99.90;;;;;;5073333;28;20048;-81
2021/12/13 03:06:54;;;;;;;24.95;16.05;;;10.10;99.90;;;;;;5081508;28;20047;-82
2021/12/13 03:09:23;;;;;;;25.67;16.67;;;10.00;99.90;;;;;;5093636;28;20074;-83
2021/12/13 03:11:52;;;;;;;27.45;15.93;;;9.90;99.90;;;;;;5077733;28;20055;-80
2021/12/13 03:14:30;;;;;;;23.63;15.10;;;9.90;99.90;;;;;;5078164;28;20040;-82
2021/12/13 03:17:05;;;;;;;24.52;14.38;;;9.80;99.90;;;;;;5078114;28;20546;-83
2021/12/13 03:19:40;;;;;;;23.63;15.02;;;9.70;99.90;;;;;;5078385;28;20066;-83
2021/12/13 03:22:43;;;;;;;19.20;13.18;;;9.70;99.90;;;;;;5094610;28;20487;-84
2021/12/13 03:25:33;;;;;;;18.50;12.90;;;9.70;99.90;;;;;;5078041;28;20040;-83
2021/12/13 03:28:22;;;;;;;19.63;11.48;;;9.70;99.90;;;;;;5077746;28;20075;-84
2021/12/13 03:30:56;;;;;;;15.35;10.27;;;9.70;99.90;;;;;;5095115;28;20051;-77
2021/12/13 03:33:31;;;;;;;16.60;12.23;;;9.70;99.90;;;;;;5077385;28;20048;-83
2021/12/13 03:36:00;;;;;;;14.93;9.80;;;9.70;99.90;;;;;;5092931;28;20514;-84
2021/12/13 03:38:31;;;;;;;22.85;11.18;;;9.70;99.90;;;;;;5076762;28;20039;-84
2021/12/13 03:41:00;;;;;;;12.55;9.13;;;9.70;99.90;;;;;;5077758;28;20051;-74
2021/12/13 03:43:35;;;;;;;16.95;9.07;;;9.70;99.90;;;;;;5077731;28;20442;-78
2021/12/13 03:46:03;;;;;;;23.50;9.68;;;9.70;99.90;;;;;;5071453;28;20040;-83
2021/12/13 03:48:30;;;;;;;14.52;8.98;;;9.70;99.90;;;;;;5060558;28;20462;-82
2021/12/13 03:51:02;;;;;;;12.57;7.10;;;9.60;99.90;;;;;;5077511;28;20054;-84
2021/12/13 03:53:30;;;;;;;13.98;8.32;;;9.60;99.90;;;;;;5094290;28;20052;-79
2021/12/13 03:56:10;;;;;;;14.02;7.70;;;9.60;99.90;;;;;;5077485;28;20054;-81
2021/12/13 03:58:39;;;;;;;18.88;8.18;;;9.60;99.90;;;;;;5077970;28;20403;-81
2021/12/13 04:01:07;;;;;;;14.57;7.90;;;9.50;99.90;;;;;;5076913;28;20096;-80
2021/12/13 04:03:34;;;;;;;15.10;8.48;;;9.50;99.90;;;;;;5071040;28;20036;-82
2021/12/13 04:06:00;;;;;;;10.02;8.10;;;9.50;99.90;;;;;;5075290;28;20047;-79
2021/12/13 04:08:26;;;;;;;17.58;9.63;;;9.50;99.90;;;;;;5093606;28;20101;-81
2021/12/13 04:11:02;;;;;;;16.23;9.40;;;9.50;99.90;;;;;;5093278;28;20120;-82
2021/12/13 04:13:33;;;;;;;18.95;9.07;;;9.50;99.90;;;;;;5093488;28;20123;-83
2021/12/13 04:16:35;;;;;;;18.25;9.00;;;9.50;99.90;;;;;;5076748;28;20058;-80
2021/12/13 04:19:51;;;;;;;16.73;10.00;;;9.50;99.90;;;;;;5086247;28;20055;-85
2021/12/13 04:22:25;;;;;;;17.70;9.20;;;9.50;99.90;;;;;;5079433;28;20047;-84
2021/12/13 04:25:33;;;;;;;19.73;10.40;;;9.50;99.90;;;;;;5112156;28;20039;-83
2021/12/13 04:28:43;;;;;;;13.77;9.85;;;9.50;99.90;;;;;;5096542;28;20507;-84
2021/12/13 04:31:54;;;;;;;18.58;11.27;;;9.60;99.90;;;;;;5089197;28;20055;-83
2021/12/13 04:34:25;;;;;;;19.17;12.30;;;9.50;99.90;;;;;;5058075;28;20622;-83
2021/12/13 04:37:22;;;;;;;26.45;13.13;;;9.50;99.90;;;;;;5089859;28;20086;-84
2021/12/13 04:40:35;;;;;;;22.17;13.15;;;9.50;99.90;;;;;;5076084;28;20036;-84
2021/12/13 04:43:16;;;;;;;18.55;12.40;;;9.50;99.90;;;;;;5075573;28;20051;-83
2021/12/13 04:45:53;;;;;;;21.05;13.18;;;9.50;99.90;;;;;;5069731;28;20612;-82
2021/12/13 04:48:34;;;;;;;16.98;11.05;;;9.50;99.90;;;;;;5069274;28;20048;-81
2021/12/13 04:51:10;;;;;;;17.17;11.00;;;9.50;99.90;;;;;;5069581;28;20048;-80
2021/12/13 04:53:42;;;;;;;16.52;9.70;;;9.50;99.90;;;;;;5053448;28;20109;-81
2021/12/13 04:56:12;;;;;;;19.95;10.20;;;9.50;99.90;;;;;;5069138;28;20059;-81
2021/12/13 04:58:39;;;;;;;11.18;8.80;;;9.50;99.90;;;;;;5068257;28;20040;-84
2021/12/13 05:01:08;;;;;;;13.50;10.15;;;9.50;99.90;;;;;;5053086;28;20040;-83
2021/12/13 05:03:43;;;;;;;12.80;9.32;;;9.50;99.90;;;;;;5052860;28;20044;-83
2021/12/13 05:06:14;;;;;;;15.40;9.10;;;9.50;99.90;;;;;;5053250;28;20098;-83
2021/12/13 05:08:43;;;;;;;13.77;9.73;;;9.50;99.90;;;;;;5052987;28;20098;-80
2021/12/13 05:11:10;;;;;;;14.65;9.73;;;9.50;99.90;;;;;;5068848;28;20052;-80
2021/12/13 05:13:40;;;;;;;13.73;9.30;;;9.50;99.90;;;;;;5053391;28;20071;-78
2021/12/13 05:16:10;;;;;;;14.90;8.70;;;9.50;99.90;;;;;;5069675;28;20044;-83
2021/12/13 05:18:49;;;;;;;12.60;8.38;;;9.50;99.90;;;;;;5068134;28;20566;-82
2021/12/13 05:21:32;;;;;;;13.60;8.18;;;9.50;99.90;;;;;;5052340;28;20044;-82
2021/12/13 05:24:02;;;;;;;13.50;8.98;;;9.50;99.90;;;;;;5051897;28;20090;-83
2021/12/13 05:26:33;;;;;;;12.23;8.88;;;9.50;99.90;;;;;;5069627;28;20047;-84
2021/12/13 05:29:01;;;;;;;12.25;8.23;;;9.50;99.90;;;;;;5052633;28;20052;-81
2021/12/13 05:31:28;;;;;;;11.40;8.60;;;9.50;99.90;;;;;;5051837;28;20127;-80
2021/12/13 05:33:59;;;;;;;13.18;8.85;;;9.50;99.90;;;;;;5052907;28;20094;-79
2021/12/13 05:36:29;;;;;;;12.57;8.88;;;9.50;99.90;;;;;;5069614;28;20131;-80
2021/12/13 05:39:10;;;;;;;17.38;8.85;;;9.50;99.90;;;;;;5068456;28;20040;-79
2021/12/13 05:41:37;;;;;;;14.70;10.05;;;9.60;99.90;;;;;;5069407;28;20131;-80
2021/12/13 05:44:07;;;;;;;15.93;10.05;;;9.50;99.90;;;;;;5059124;28;20492;-81
2021/12/13 05:46:44;;;;;;;15.73;10.52;;;9.50;99.90;;;;;;5073571;28;20052;-79
2021/12/13 05:49:23;;;;;;;14.88;10.65;;;9.50;99.90;;;;;;5092726;28;20040;-83
2021/12/13 05:51:56;;;;;;;17.65;11.82;;;9.60;99.90;;;;;;5076411;28;20518;-81
2021/12/13 05:54:32;;;;;;;16.08;11.45;;;9.60;99.90;;;;;;5093084;28;20496;-80
2021/12/13 05:57:17;;;;;;;14.32;11.20;;;9.50;99.90;;;;;;5093455;28;20040;-81
2021/12/13 06:00:04;;;;;;;15.50;12.23;;;9.60;99.90;;;;;;5092625;28;20108;-81
2021/12/13 06:02:38;;;;;;;16.58;13.00;;;9.50;99.90;;;;;;5076560;28;20488;-81
2021/12/13 06:05:17;;;;;;;15.73;12.57;;;9.60;99.90;;;;;;5090441;28;20048;-80
2021/12/13 06:07:53;;;;;;;16.75;13.18;;;9.60;99.90;;;;;;5086498;28;20040;-80
2021/12/13 06:10:21;;;;;;;20.85;14.32;;;9.60;99.90;;;;;;5093282;28;20059;-80
2021/12/13 06:13:03;;;;;;;19.08;14.00;;;9.60;99.90;;;;;;5056767;28;20044;-81
2021/12/13 06:15:35;;;;;;;18.13;14.05;;;9.60;99.90;;;;;;5093025;28;20105;-80
2021/12/13 06:18:03;;;;;;;18.80;14.73;;;9.50;99.90;;;;;;5074625;28;20048;-83
2021/12/13 06:20:34;;;;;;;18.60;14.80;;;9.50;99.90;;;;;;5072218;28;20048;-84
2021/12/13 06:23:11;;;;;;;21.27;15.90;;;9.50;99.90;;;;;;5075789;28;20067;-84
2021/12/13 06:25:39;;;;;;;19.45;16.30;;;9.60;99.90;;;;;;5077136;28;20492;-82
2021/12/13 06:28:07;;;;;;;22.63;16.15;;;9.50;99.90;;;;;;5091833;28;20040;-78
2021/12/13 06:30:38;;;;;;;20.58;16.95;;;9.50;99.90;;;;;;5075938;28;20476;-81
2021/12/13 06:33:08;;;;;;;22.42;17.25;;;9.60;99.90;;;;;;5075601;28;20040;-79
2021/12/13 06:35:45;;;;;;;19.98;17.27;;;9.60;99.90;;;;;;5092115;28;20055;-80
2021/12/13 06:38:20;;;;;;;21.02;17.48;;;9.50;99.90;;;;;;5074700;28;20082;-81
2021/12/13 06:40:52;;;;;;;23.17;19.17;;;9.50;99.90;;;;;;5075801;28;20488;-81
2021/12/13 06:43:41;;;;;;;22.67;19.17;;;9.50;99.90;;;;;;5075193;28;20044;-81
2021/12/13 06:46:24;;;;;;;22.02;18.40;;;9.50;99.90;;;;;;5091443;28;20134;-80
2021/12/13 06:48:54;;;;;;;21.15;17.33;;;9.50;99.90;;;;;;5079774;28;20066;-84
2021/12/13 06:51:35;;;;;;;24.60;19.67;;;9.50;99.90;;;;;;5078574;28;20117;-80
2021/12/13 06:54:04;;;;;;;24.58;19.85;;;9.50;99.90;;;;;;5095905;28;20403;-79
2021/12/13 06:56:32;;;;;;;25.38;20.40;;;9.50;99.90;;;;;;5093708;28;20071;-78
2021/12/13 06:59:02;;;;;;;23.02;17.98;;;9.60;99.90;;;;;;5076993;28;20031;-79
2021/12/13 07:01:31;;;;;;;22.85;18.75;;;9.60;99.90;;;;;;5078220;28;20188;-81
2021/12/13 07:04:03;;;;;;;27.88;20.92;;;9.60;99.90;;;;;;5088918;28;20040;-82
2021/12/13 07:06:29;;;;;;;23.17;18.70;;;9.60;99.90;;;;;;5074674;28;20122;-79
2021/12/13 07:09:16;;;;;;;22.42;19.77;;;9.60;99.90;;;;;;5075478;28;20095;-82
2021/12/13 07:11:50;;;;;;;22.30;19.10;;;9.70;99.90;;;;;;5085615;28;20074;-82
2021/12/13 07:14:18;;;;;;;27.02;22.70;;;9.50;99.90;;;;;;5095350;28;20047;-82
2021/12/13 07:16:52;;;;;;;24.75;20.85;;;9.60;99.90;;;;;;5094246;28;20487;-80
2021/12/13 07:19:23;;;;;;;25.50;21.25;;;9.60;99.90;;;;;;5078239;28;20495;-80
2021/12/13 07:21:57;;;;;;;24.33;21.80;;;9.60;99.90;;;;;;5093897;28;20127;-74
2021/12/13 07:24:43;;;;;;;24.35;21.45;;;9.60;99.90;;;;;;5077477;28;20039;-73
2021/12/13 07:27:12;;;;;;;23.50;20.92;;;9.60;99.90;;;;;;5077970;28;20079;-75
2021/12/13 07:30:03;;;;;;;27.25;22.70;;;9.60;99.90;;;;;;5078354;28;20047;-80
2021/12/13 07:32:53;;;;;;;26.05;22.45;;;9.60;99.90;;;;;;5075414;28;20127;-79
2021/12/13 07:35:44;;;;;;;25.02;21.88;;;9.60;99.90;;;;;;5076914;28;20048;-76
2021/12/13 07:38:10;;;;;;;25.35;22.50;;;9.60;99.90;;;;;;5061184;28;20054;-84
2021/12/13 07:40:43;;;;;;;24.27;21.60;;;9.60;99.90;;;;;;5075721;28;20047;-81
2021/12/13 07:43:15;;;;;;;26.67;21.65;;;9.60;99.90;;;;;;5076166;28;20086;-84
2021/12/13 07:45:45;;;;;;;28.95;22.63;;;9.60;99.90;;;;;;5076575;28;20093;-78
2021/12/13 07:48:22;;;;;;;23.40;21.00;;;9.60;99.90;;;;;;5077332;28;20514;-78
2021/12/13 07:51:03;;;;;;;25.52;20.27;;;9.60;99.90;;;;;;5076893;28;20821;-82
2021/12/13 07:53:39;;;;;;;21.73;18.88;;;9.70;99.90;;;;;;5090308;28;20096;-78
2021/12/13 07:56:05;;;;;;;23.63;19.90;;;9.60;99.90;;;;;;5070330;28;20436;-86
2021/12/13 07:58:45;;;;;;;22.02;19.67;;;9.60;99.90;;;;;;5076494;28;20130;-81
2021/12/13 08:01:23;;;;;;;23.30;19.30;;;9.70;99.90;;;;;;5092999;28;20044;-83
2021/12/13 08:03:57;;;;;;;23.02;19.45;;;9.70;99.90;;;;;;5076259;28;20043;-75
2021/12/13 08:06:33;;;;;;;24.42;19.45;;;9.60;99.90;;;;;;5076562;28;20035;-81
2021/12/13 08:09:02;;;;;;;22.25;19.85;;;9.70;99.90;;;;;;5071670;28;20055;-80
2021/12/13 08:11:50;;;;;;;25.40;21.00;;;9.60;99.90;;;;;;5093958;28;20051;-80
2021/12/13 08:14:26;;;;;;;21.25;19.08;;;9.70;99.90;;;;;;5076924;28;20075;-81
2021/12/13 08:16:52;;;;;;;19.48;17.50;;;9.60;99.90;;;;;;5075612;28;20115;-82
2021/12/13 08:19:26;;;;;;;21.42;19.33;;;9.60;99.90;;;;;;5111415;28;20039;-76
2021/12/13 08:21:59;;;;;;;23.17;18.63;;;9.60;99.90;;;;;;5076828;28;20043;-82
2021/12/13 08:24:40;;;;;;;23.15;18.92;;;9.70;99.90;;;;;;5094082;28;20040;-82
2021/12/13 08:27:21;;;;;;;20.85;18.35;;;9.70;99.90;;;;;;5076447;28;20051;-78
2021/12/13 08:29:47;;;;;;;20.45;18.35;;;9.70;99.90;;;;;;5093798;28;20499;-82
2021/12/13 08:32:17;;;;;;;21.83;18.55;;;9.70;99.90;;;;;;5094024;28;20130;-81
2021/12/13 08:34:50;;;;;;;19.65;17.65;;;9.70;99.90;;;;;;5076215;28;20032;-80
2021/12/13 08:37:27;;;;;;;;;;;9.70;99.90;;;;;;5076240;28;20071;-76
2021/12/13 08:39:57;;;;;;;20.42;18.27;;;9.70;99.90;;;;;;5076025;28;20010;-80
2021/12/13 08:42:27;;;;;;;21.02;18.83;;;9.70;99.90;;;;;;5070719;28;20071;-81
2021/12/13 08:45:24;;;;;;;21.08;18.08;;;9.70;99.90;;;;;;5075068;28;20094;-83
2021/12/13 08:47:55;;;;;;;21.33;18.15;;;9.80;99.90;;;;;;5093043;28;20047;-81
2021/12/13 08:50:25;;;;;;;;;;;9.80;99.90;;;;;;5060512;28;20566;-82
2021/12/13 08:53:06;;;;;;;19.27;17.30;;;9.80;99.90;;;;;;5076738;28;20389;-82
2021/12/13 08:55:36;;;;;;;19.20;17.20;;;9.80;99.90;;;;;;5076115;28;20047;-76
2021/12/13 08:58:09;;;;;;;20.23;17.48;;;9.80;99.90;;;;;;5093625;28;20565;-81
2021/12/13 09:01:03;;;;;;;20.77;18.50;;;9.80;99.90;;;;;;5076996;28;20079;-82
2021/12/13 09:03:32;;;;;;;23.42;19.05;;;9.80;99.90;;;;;;5093022;28;20588;-81
2021/12/13 09:06:12;;;;;;;18.40;16.25;;;9.80;99.90;;;;;;5093872;28;20892;-76
2021/12/13 09:09:09;;;;;;;20.55;17.55;;;9.80;99.90;;;;;;5076895;28;20058;-80
2021/12/13 09:11:48;;;;;;;21.02;16.85;;;9.90;99.90;;;;;;5076043;28;20046;-80
2021/12/13 09:14:35;;;;;;;20.15;17.00;;;9.90;99.90;;;;;;5076449;28;20047;-81
2021/12/13 09:17:16;;;;;;;20.08;17.80;;;9.90;99.90;;;;;;5092615;28;20054;-81
2021/12/13 09:19:47;;;;;;;20.08;17.50;;;9.90;99.90;;;;;;5076728;28;20475;-76
2021/12/13 09:22:36;;;;;;;21.98;16.42;;;9.90;99.90;;;;;;5075594;28;20105;-81
2021/12/13 09:25:07;;;;;;;20.60;17.77;;;9.90;99.90;;;;;;5076050;28;20177;-79
2021/12/13 09:28:20;;;;;;;18.45;16.65;;;9.90;99.90;;;;;;5088693;28;20054;-76
2021/12/13 09:31:02;;;;;;;18.63;15.93;;;10.00;99.90;;;;;;5027978;28;20045;-81
2021/12/13 09:33:51;;;;;;;21.35;16.55;;;10.00;99.90;;;;;;5012303;28;20054;-81
2021/12/13 09:36:24;;;;;;;19.40;15.85;;;10.00;99.90;;;;;;5076581;28;20048;-82
2021/12/13 09:39:04;;;;;;;18.48;16.08;;;10.00;99.90;;;;;;5092348;28;20169;-81
2021/12/13 09:41:41;;;;;;;20.13;16.55;;;10.00;99.90;;;;;;5092381;28;20062;-80
2021/12/13 09:44:11;;;;;;;21.33;16.80;;;10.00;99.90;;;;;;5092657;28;20054;-77
2021/12/13 09:47:02;;;;;;;21.38;17.27;;;10.00;99.90;;;;;;5076952;28;20043;-81
2021/12/13 09:49:46;;;;;;;17.38;15.45;;;10.10;99.90;;;;;;5093277;28;20127;-81
2021/12/13 09:52:18;;;;;;;20.60;15.60;;;10.10;99.90;;;;;;5075480;28;20048;-83
2021/12/13 09:54:56;;;;;;;20.75;16.15;;;10.10;99.90;;;;;;5076091;28;20066;-81
2021/12/13 09:57:35;;;;;;;20.58;16.67;;;10.10;99.90;;;;;;5076117;28;20193;-81
2021/12/13 10:00:06;;;;;;;21.20;15.95;;;10.10;99.90;;;;;;5092461;28;20051;-82
2021/12/13 10:02:39;;;;;;;19.60;16.55;;;10.10;99.90;;;;;;5093248;28;20054;-82
2021/12/13 10:05:12;;;;;;;20.45;16.92;;;10.10;99.90;;;;;;5092877;28;20445;-82
2021/12/13 10:07:43;;;;;;;18.77;15.63;;;10.10;99.90;;;;;;5093141;28;20091;-82
2021/12/13 10:10:17;;;;;;;22.25;16.55;;;10.10;99.90;;;;;;5092278;28;20048;-79
2021/12/13 10:13:12;;;;;;;19.60;15.55;;;10.10;99.90;;;;;;5088180;28;20558;-82
2021/12/13 10:15:42;;;;;;;21.67;16.15;;;10.10;99.90;;;;;;5070225;28;20052;-79
2021/12/13 10:18:17;;;;;;;19.90;16.27;;;10.20;99.90;;;;;;5083571;28;20043;-75
2021/12/13 10:20:50;;;;;;;19.33;15.75;;;10.10;99.90;;;;;;5056559;28;20484;-76
2021/12/13 10:23:18;;;;;;;;;;;10.10;99.90;;;;;;5063393;28;20092;-80
2021/12/13 10:25:48;;;;;;;20.92;15.82;;;10.10;99.90;;;;;;5073411;28;19920;-81
2021/12/13 10:28:19;;;;;;;20.30;15.02;;;10.10;99.90;;;;;;5075458;28;20043;-80
2021/12/13 10:30:49;;;;;;;20.15;14.80;;;10.10;99.90;;;;;;5076084;28;20055;-81
2021/12/13 10:33:18;;;;;;;21.65;15.45;;;10.10;99.90;;;;;;5058174;28;20068;-81
2021/12/13 10:35:45;;;;;;;19.05;15.60;;;10.20;99.90;;;;;;5059535;28;20052;-81
2021/12/13 10:38:18;;;;;;;17.58;15.45;;;10.20;99.90;;;;;;5059144;28;20488;-80
2021/12/13 10:41:05;;;;;;;22.60;15.55;;;10.30;99.90;;;;;;5058930;28;20534;-79
2021/12/13 10:43:45;;;;;;;20.65;14.68;;;10.30;99.90;;;;;;5088768;28;20040;-77
2021/12/13 10:46:20;;;;;;;20.25;15.32;;;10.40;99.90;;;;;;5091962;28;20113;-76
2021/12/13 10:48:52;;;;;;;21.48;15.45;;;10.40;99.90;;;;;;5074072;28;20475;-80
2021/12/13 10:51:18;;;;;;;;;;;10.40;99.90;;;;;;5075926;28;20047;-76
2021/12/13 10:53:45;;;;;;;18.63;14.60;;;10.40;99.90;;;;;;5095349;28;19923;-78
2021/12/13 10:56:22;;;;;;;21.42;15.75;;;10.40;99.90;;;;;;5078552;28;20048;-82
2021/12/13 10:58:51;;;;;;;18.73;15.00;;;10.50;99.90;;;;;;5074848;28;20044;-79
2021/12/13 11:01:24;;;;;;;20.23;14.75;;;10.40;99.90;;;;;;5078316;28;20051;-81
2021/12/13 11:03:52;;;;;;;17.20;14.80;;;10.40;99.90;;;;;;5095725;28;20070;-80
2021/12/13 11:06:19;;;;;;;20.13;14.77;;;10.40;99.90;;;;;;5095902;28;20055;-80
2021/12/13 11:08:45;;;;;;;23.48;15.55;;;10.40;99.90;;;;;;5094768;28;20402;-79
2021/12/13 11:11:28;;;;;;;19.13;16.20;;;10.40;99.90;;;;;;5096156;28;20364;-77
2021/12/13 11:13:59;;;;;;;18.92;15.45;;;10.40;99.90;;;;;;5077815;28;20053;-80
2021/12/13 11:16:41;;;;;;;19.90;14.70;;;10.40;99.90;;;;;;5078420;28;20372;-81
2021/12/13 11:19:12;;;;;;;18.15;16.00;;;10.40;99.90;;;;;;5078196;28;20040;-78
2021/12/13 11:21:39;;;;;;;18.48;13.88;;;10.40;99.90;;;;;;5094898;28;20159;-81
2021/12/13 11:24:09;;;;;;;19.00;15.32;;;10.50;99.90;;;;;;5078230;28;20043;-77
2021/12/13 11:26:39;;;;;;;20.42;15.35;;;10.50;99.90;;;;;;5078497;28;20039;-78
2021/12/13 11:29:06;;;;;;;22.05;15.88;;;10.50;99.90;;;;;;5094626;28;20054;-80
2021/12/13 11:31:33;;;;;;;20.63;14.85;;;10.50;99.90;;;;;;5095062;28;20093;-83
2021/12/13 11:33:59;;;;;;;18.40;15.65;;;10.50;99.90;;;;;;5077933;28;20503;-79
2021/12/13 11:36:51;;;;;;;22.08;16.13;;;10.50;99.90;;;;;;5077392;28;20054;-82
2021/12/13 11:39:41;;;;;;;19.35;15.40;;;10.50;99.90;;;;;;5081212;28;20040;-79
2021/12/13 11:42:47;;;;;;;18.98;14.43;;;10.50;99.90;;;;;;5057942;28;20068;-76
2021/12/13 11:45:32;;;;;;;20.58;15.38;;;10.50;99.90;;;;;;5028083;28;20172;-80
2021/12/13 11:48:27;;;;;;;19.40;15.13;;;10.50;99.90;;;;;;4996093;28;20049;-76
2021/12/13 11:50:59;;;;;;;19.27;15.07;;;10.50;99.90;;;;;;5053654;28;20051;-82
2021/12/13 11:53:52;;;;;;;16.92;13.10;;;10.60;99.90;;;;;;5071730;28;20050;-82
2021/12/13 11:56:54;;;;;;;18.45;14.77;;;10.60;99.90;;;;;;5072865;28;20138;-81
2021/12/13 11:59:49;;;;;;;20.08;14.82;;;10.60;99.90;;;;;;5057427;28;20149;-83
2021/12/13 12:02:33;;;;;;;17.77;15.10;;;10.60;99.90;;;;;;5076224;28;20090;-78
2021/12/13 12:05:38;;;;;;;19.40;13.85;;;10.60;99.90;;;;;;5057209;28;20100;-84
2021/12/13 12:08:41;;;;;;;19.40;13.98;;;10.60;99.90;;;;;;5077838;28;20398;-82
2021/12/13 12:11:25;;;;;;;18.23;14.27;;;10.70;99.90;;;;;;5067115;28;20161;-82
2021/12/13 12:14:06;;;;;;;17.98;14.70;;;10.70;99.90;;;;;;5091390;28;20043;-81
2021/12/13 12:16:51;;;;;;;20.30;16.50;;;10.80;99.90;;;;;;5093927;28;20115;-85
2021/12/13 12:19:27;;;;;;;20.75;15.15;;;10.80;99.90;;;;;;5077406;28;20386;-81
2021/12/13 12:22:06;;;;;;;21.85;14.50;;;10.80;99.90;;;;;;5092873;28;20050;-82
2021/12/13 12:24:47;;;;;;;18.20;14.48;;;10.90;99.90;;;;;;5076373;28;20043;-83
2021/12/13 12:27:17;;;;;;;16.45;13.48;;;11.00;99.90;;;;;;5093733;28;20051;-84
2021/12/13 12:29:55;;;;;;;17.17;13.80;;;11.10;99.90;;;;;;5094092;28;20036;-80
2021/12/13 12:32:28;;;;;;;18.52;13.35;;;11.30;99.90;;;;;;5093118;28;20417;-83
2021/12/13 12:34:59;;;;;;;15.98;12.60;;;11.40;99.90;;;;;;5090391;28;20127;-84
2021/12/13 12:37:27;;;;;;;18.33;14.00;;;11.40;99.90;;;;;;5080840;28;20048;-81
2021/12/13 12:40:26;;;;;;;18.33;13.80;;;11.40;99.90;;;;;;5065546;28;20576;-84
2021/12/13 12:42:56;;;;;;;18.88;12.50;;;11.40;99.90;;;;;;5073991;28;20048;-78
2021/12/13 12:45:44;;;;;;;17.52;14.27;;;11.30;99.90;;;;;;5073897;28;20056;-85
2021/12/13 12:48:16;;;;;;;15.70;13.35;;;11.30;99.90;;;;;;5064819;28;20106;-86
2021/12/13 12:51:10;;;;;;;17.13;13.48;;;11.30;99.90;;;;;;5060983;28;20058;-76
2021/12/13 12:53:36;;;;;;;17.10;13.63;;;11.30;99.90;;;;;;5082551;28;20043;-85
2021/12/13 12:56:19;;;;;;;16.00;12.75;;;11.30;99.90;;;;;;5071956;28;20042;-78
2021/12/13 12:59:05;;;;;;;15.45;12.27;;;11.30;99.90;;;;;;5110182;28;20051;-79
2021/12/13 13:01:43;;;;;;;19.17;12.98;;;11.30;99.90;;;;;;5069598;28;20058;-85
2021/12/13 13:04:24;;;;;;;21.70;14.30;;;11.30;99.90;;;;;;5093898;28;20148;-84
2021/12/13 13:07:01;;;;;;;15.90;12.43;;;11.30;99.90;;;;;;5091452;28;20520;-80
2021/12/13 13:09:44;;;;;;;16.45;13.00;;;11.40;99.90;;;;;;5090316;28;20044;-83
2021/12/13 13:12:25;;;;;;;16.45;13.25;;;11.40;99.90;;;;;;5075731;28;20136;-85
2021/12/13 13:14:55;;;;;;;15.27;12.27;;;11.40;99.90;;;;;;5075519;28;20050;-78
2021/12/13 13:17:25;;;;;;;17.33;11.90;;;11.30;99.90;;;;;;5093094;28;20047;-83
2021/12/13 13:19:55;;;;;;;15.30;12.80;;;11.30;99.90;;;;;;5091365;28;20048;-74
2021/12/13 13:22:29;;;;;;;14.93;12.25;;;11.30;99.90;;;;;;5074836;28;20048;-76
2021/12/13 13:25:00;;;;;;;16.73;11.55;;;11.20;99.90;;;;;;5060039;28;20040;-82
2021/12/13 13:27:30;;;;;;;18.63;12.10;;;11.20;99.90;;;;;;5066666;28;20501;-82
2021/12/13 13:29:56;;;;;;;15.45;12.68;;;11.20;99.90;;;;;;5076308;28;20039;-81